sensor_id;sensor_type;location;lat;lon;timestamp;P1;durP1;ratioP1;P2;durP2;ratioP2
20449;SDS011;10384;51.940;8.432;2022-12-26T00:00:54;25.33;;;10.23;;
20449;SDS011;10384;51.940;8.432;2022-12-26T00:03:20;22.63;;;10.17;;
20449;SDS011;10384;51.940;8.432;2022-12-26T00:05:46;24.10;;;10.50;;
20449;SDS011;10384;51.940;8.432;2022-12-26T00:08:12;25.97;;;11.07;;
20449;SDS011;10384;51.940;8.432;2022-12-26T00:10:38;22.17;;;10.10;;
20449;SDS011;10384;51.940;8.432;2022-12-26T00:13:04;23.07;;;10.20;;
20449;SDS011;10384;51.940;8.432;2022-12-26T00:15:30;22.63;;;10.10;;
20449;SDS011;10384;51.940;8.432;2022-12-26T00:17:56;25.43;;;10.83;;
20449;SDS011;10384;51.940;8.432;2022-12-26T00:20:22;26.23;;;10.60;;
20449;SDS011;10384;51.940;8.432;2022-12-26T00:22:48;23.33;;;10.40;;
20449;SDS011;10384;51.940;8.432;2022-12-26T00:25:14;25.60;;;10.73;;
20449;SDS011;10384;51.940;8.432;2022-12-26T00:27:40;28.97;;;11.03;;
20449;SDS011;10384;51.940;8.432;2022-12-26T00:30:06;25.73;;;10.87;;
20449;SDS011;10384;51.940;8.432;2022-12-26T00:32:32;24.53;;;10.93;;
20449;SDS011;10384;51.940;8.432;2022-12-26T00:34:58;24.07;;;10.83;;
20449;SDS011;10384;51.940;8.432;2022-12-26T00:37:24;24.47;;;10.23;;
20449;SDS011;10384;51.940;8.432;2022-12-26T00:39:50;24.50;;;11.07;;
20449;SDS011;10384;51.940;8.432;2022-12-26T00:42:16;25.37;;;10.70;;
20449;SDS011;10384;51.940;8.432;2022-12-26T00:44:42;23.30;;;10.40;;
20449;SDS011;10384;51.940;8.432;2022-12-26T00:47:08;24.07;;;10.57;;
20449;SDS011;10384;51.940;8.432;2022-12-26T00:49:34;24.23;;;10.43;;
20449;SDS011;10384;51.940;8.432;2022-12-26T00:52:00;24.13;;;10.43;;
20449;SDS011;10384;51.940;8.432;2022-12-26T00:54:26;33.20;;;13.13;;
20449;SDS011;10384;51.940;8.432;2022-12-26T00:56:52;26.97;;;10.90;;
20449;SDS011;10384;51.940;8.432;2022-12-26T00:59:18;24.23;;;10.83;;
20449;SDS011;10384;51.940;8.432;2022-12-26T01:01:44;26.50;;;11.07;;
20449;SDS011;10384;51.940;8.432;2022-12-26T01:04:10;26.77;;;11.27;;
20449;SDS011;10384;51.940;8.432;2022-12-26T01:06:36;26.50;;;10.80;;
20449;SDS011;10384;51.940;8.432;2022-12-26T01:09:02;27.80;;;12.30;;
20449;SDS011;10384;51.940;8.432;2022-12-26T01:11:28;24.50;;;11.17;;
20449;SDS011;10384;51.940;8.432;2022-12-26T01:14:15;26.43;;;11.73;;
20449;SDS011;10384;51.940;8.432;2022-12-26T01:16:42;24.13;;;10.80;;
20449;SDS011;10384;51.940;8.432;2022-12-26T01:19:09;29.17;;;11.63;;
20449;SDS011;10384;51.940;8.432;2022-12-26T01:21:36;26.87;;;11.10;;
20449;SDS011;10384;51.940;8.432;2022-12-26T01:24:02;23.07;;;10.30;;
20449;SDS011;10384;51.940;8.432;2022-12-26T01:26:28;28.17;;;11.73;;
20449;SDS011;10384;51.940;8.432;2022-12-26T01:28:54;28.63;;;11.93;;
20449;SDS011;10384;51.940;8.432;2022-12-26T01:31:21;25.67;;;11.57;;
20449;SDS011;10384;51.940;8.432;2022-12-26T01:33:47;25.63;;;11.33;;
20449;SDS011;10384;51.940;8.432;2022-12-26T01:36:13;21.43;;;10.30;;
20449;SDS011;10384;51.940;8.432;2022-12-26T01:38:39;22.23;;;10.60;;
20449;SDS011;10384;51.940;8.432;2022-12-26T01:41:05;21.70;;;10.20;;
20449;SDS011;10384;51.940;8.432;2022-12-26T01:43:57;26.53;;;11.13;;
20449;SDS011;10384;51.940;8.432;2022-12-26T01:46:41;24.17;;;10.47;;
20449;SDS011;10384;51.940;8.432;2022-12-26T01:49:12;22.10;;;10.10;;
20449;SDS011;10384;51.940;8.432;2022-12-26T01:51:40;22.53;;;10.47;;
20449;SDS011;10384;51.940;8.432;2022-12-26T01:54:08;21.97;;;9.83;;
20449;SDS011;10384;51.940;8.432;2022-12-26T01:56:36;19.13;;;9.50;;
20449;SDS011;10384;51.940;8.432;2022-12-26T01:59:07;23.03;;;10.07;;
20449;SDS011;10384;51.940;8.432;2022-12-26T02:01:34;23.00;;;9.87;;
20449;SDS011;10384;51.940;8.432;2022-12-26T02:04:01;23.33;;;10.17;;
20449;SDS011;10384;51.940;8.432;2022-12-26T02:06:48;20.43;;;10.10;;
20449;SDS011;10384;51.940;8.432;2022-12-26T02:09:15;22.43;;;9.80;;
20449;SDS011;10384;51.940;8.432;2022-12-26T02:11:42;19.43;;;9.77;;
20449;SDS011;10384;51.940;8.432;2022-12-26T02:14:09;23.13;;;9.97;;
20449;SDS011;10384;51.940;8.432;2022-12-26T02:16:35;22.20;;;9.90;;
20449;SDS011;10384;51.940;8.432;2022-12-26T02:19:02;21.80;;;9.57;;
20449;SDS011;10384;51.940;8.432;2022-12-26T02:24:15;24.80;;;10.47;;
20449;SDS011;10384;51.940;8.432;2022-12-26T02:26:57;21.97;;;10.03;;
20449;SDS011;10384;51.940;8.432;2022-12-26T02:29:35;20.57;;;9.53;;
20449;SDS011;10384;51.940;8.432;2022-12-26T02:35:01;18.73;;;8.83;;
20449;SDS011;10384;51.940;8.432;2022-12-26T02:45:29;19.23;;;8.87;;
20449;SDS011;10384;51.940;8.432;2022-12-26T02:56:38;21.17;;;9.80;;
20449;SDS011;10384;51.940;8.432;2022-12-26T02:59:32;20.20;;;9.47;;
20449;SDS011;10384;51.940;8.432;2022-12-26T03:02:24;21.93;;;9.60;;
20449;SDS011;10384;51.940;8.432;2022-12-26T03:05:11;22.20;;;10.20;;
20449;SDS011;10384;51.940;8.432;2022-12-26T03:07:57;23.37;;;9.67;;
20449;SDS011;10384;51.940;8.432;2022-12-26T03:10:42;21.10;;;9.07;;
20449;SDS011;10384;51.940;8.432;2022-12-26T03:13:28;20.60;;;9.50;;
20449;SDS011;10384;51.940;8.432;2022-12-26T03:15:58;21.90;;;9.83;;
20449;SDS011;10384;51.940;8.432;2022-12-26T03:18:46;22.17;;;9.20;;
20449;SDS011;10384;51.940;8.432;2022-12-26T03:21:13;20.63;;;9.27;;
20449;SDS011;10384;51.940;8.432;2022-12-26T03:23:41;19.63;;;9.23;;
20449;SDS011;10384;51.940;8.432;2022-12-26T03:26:11;18.93;;;8.80;;
20449;SDS011;10384;51.940;8.432;2022-12-26T03:28:58;22.73;;;9.93;;
20449;SDS011;10384;51.940;8.432;2022-12-26T03:31:44;18.87;;;9.37;;
20449;SDS011;10384;51.940;8.432;2022-12-26T03:34:10;21.27;;;9.37;;
20449;SDS011;10384;51.940;8.432;2022-12-26T03:45:18;20.53;;;9.70;;
20449;SDS011;10384;51.940;8.432;2022-12-26T03:48:12;21.27;;;9.30;;
20449;SDS011;10384;51.940;8.432;2022-12-26T03:51:04;25.40;;;9.90;;
20449;SDS011;10384;51.940;8.432;2022-12-26T03:53:58;26.03;;;10.80;;
20449;SDS011;10384;51.940;8.432;2022-12-26T03:56:51;23.73;;;9.40;;
20449;SDS011;10384;51.940;8.432;2022-12-26T03:59:46;24.43;;;9.57;;
20449;SDS011;10384;51.940;8.432;2022-12-26T04:02:32;22.63;;;9.33;;
20449;SDS011;10384;51.940;8.432;2022-12-26T04:05:18;21.90;;;10.10;;
20449;SDS011;10384;51.940;8.432;2022-12-26T04:08:05;25.83;;;9.60;;
20449;SDS011;10384;51.940;8.432;2022-12-26T04:10:55;22.80;;;10.23;;
20449;SDS011;10384;51.940;8.432;2022-12-26T04:13:51;22.20;;;8.57;;
20449;SDS011;10384;51.940;8.432;2022-12-26T04:16:39;22.77;;;9.73;;
20449;SDS011;10384;51.940;8.432;2022-12-26T04:22:03;23.13;;;9.80;;
20449;SDS011;10384;51.940;8.432;2022-12-26T04:24:51;19.60;;;9.40;;
20449;SDS011;10384;51.940;8.432;2022-12-26T04:27:41;25.20;;;10.00;;
20449;SDS011;10384;51.940;8.432;2022-12-26T04:30:26;23.47;;;10.30;;
20449;SDS011;10384;51.940;8.432;2022-12-26T04:33:23;22.33;;;8.97;;
20449;SDS011;10384;51.940;8.432;2022-12-26T04:36:12;22.20;;;8.87;;
20449;SDS011;10384;51.940;8.432;2022-12-26T04:39:00;29.27;;;10.03;;
20449;SDS011;10384;51.940;8.432;2022-12-26T04:41:45;24.37;;;9.97;;
20449;SDS011;10384;51.940;8.432;2022-12-26T04:44:32;22.90;;;9.23;;
20449;SDS011;10384;51.940;8.432;2022-12-26T04:46:59;23.80;;;9.83;;
20449;SDS011;10384;51.940;8.432;2022-12-26T04:49:24;23.60;;;10.83;;
20449;SDS011;10384;51.940;8.432;2022-12-26T04:52:10;28.50;;;10.23;;
20449;SDS011;10384;51.940;8.432;2022-12-26T04:54:37;24.87;;;10.07;;
20449;SDS011;10384;51.940;8.432;2022-12-26T04:57:03;28.43;;;10.63;;
20449;SDS011;10384;51.940;8.432;2022-12-26T04:59:29;26.57;;;10.47;;
20449;SDS011;10384;51.940;8.432;2022-12-26T05:01:55;26.27;;;10.70;;
20449;SDS011;10384;51.940;8.432;2022-12-26T05:04:40;26.60;;;10.57;;
20449;SDS011;10384;51.940;8.432;2022-12-26T05:07:26;29.57;;;11.40;;
20449;SDS011;10384;51.940;8.432;2022-12-26T05:12:47;33.43;;;11.70;;
20449;SDS011;10384;51.940;8.432;2022-12-26T05:15:13;29.30;;;11.90;;
20449;SDS011;10384;51.940;8.432;2022-12-26T05:17:39;32.57;;;11.70;;
20449;SDS011;10384;51.940;8.432;2022-12-26T05:20:24;28.50;;;10.70;;
20449;SDS011;10384;51.940;8.432;2022-12-26T05:23:02;24.97;;;10.70;;
20449;SDS011;10384;51.940;8.432;2022-12-26T05:25:47;25.07;;;9.97;;
20449;SDS011;10384;51.940;8.432;2022-12-26T05:28:32;24.20;;;10.17;;
20449;SDS011;10384;51.940;8.432;2022-12-26T05:31:08;24.60;;;10.50;;
20449;SDS011;10384;51.940;8.432;2022-12-26T05:33:34;23.93;;;10.20;;
20449;SDS011;10384;51.940;8.432;2022-12-26T05:36:19;27.10;;;10.20;;
20449;SDS011;10384;51.940;8.432;2022-12-26T05:38:46;20.53;;;8.67;;
20449;SDS011;10384;51.940;8.432;2022-12-26T05:41:13;20.37;;;7.90;;
20449;SDS011;10384;51.940;8.432;2022-12-26T05:43:39;17.43;;;7.57;;
20449;SDS011;10384;51.940;8.432;2022-12-26T05:46:05;18.07;;;8.13;;
20449;SDS011;10384;51.940;8.432;2022-12-26T05:48:31;19.90;;;7.20;;
20449;SDS011;10384;51.940;8.432;2022-12-26T05:51:01;18.20;;;7.33;;
20449;SDS011;10384;51.940;8.432;2022-12-26T05:53:27;17.43;;;8.13;;
20449;SDS011;10384;51.940;8.432;2022-12-26T05:55:53;20.10;;;8.00;;
20449;SDS011;10384;51.940;8.432;2022-12-26T05:58:20;17.13;;;7.40;;
20449;SDS011;10384;51.940;8.432;2022-12-26T06:00:46;17.83;;;6.70;;
20449;SDS011;10384;51.940;8.432;2022-12-26T06:03:12;16.87;;;7.37;;
20449;SDS011;10384;51.940;8.432;2022-12-26T06:05:38;16.97;;;7.80;;
20449;SDS011;10384;51.940;8.432;2022-12-26T06:08:04;18.53;;;7.23;;
20449;SDS011;10384;51.940;8.432;2022-12-26T06:10:30;20.73;;;8.20;;
20449;SDS011;10384;51.940;8.432;2022-12-26T06:12:56;15.63;;;7.60;;
20449;SDS011;10384;51.940;8.432;2022-12-26T06:15:22;20.57;;;8.47;;
20449;SDS011;10384;51.940;8.432;2022-12-26T06:17:48;17.23;;;7.77;;
20449;SDS011;10384;51.940;8.432;2022-12-26T06:20:14;18.67;;;8.20;;
20449;SDS011;10384;51.940;8.432;2022-12-26T06:22:40;17.23;;;7.90;;
20449;SDS011;10384;51.940;8.432;2022-12-26T06:25:06;18.37;;;8.37;;
20449;SDS011;10384;51.940;8.432;2022-12-26T06:27:32;19.37;;;7.80;;
20449;SDS011;10384;51.940;8.432;2022-12-26T06:29:58;14.70;;;7.77;;
20449;SDS011;10384;51.940;8.432;2022-12-26T06:32:24;17.47;;;7.90;;
20449;SDS011;10384;51.940;8.432;2022-12-26T06:34:50;16.83;;;7.93;;
20449;SDS011;10384;51.940;8.432;2022-12-26T06:37:16;18.73;;;8.03;;
20449;SDS011;10384;51.940;8.432;2022-12-26T06:39:42;20.30;;;8.53;;
20449;SDS011;10384;51.940;8.432;2022-12-26T06:42:08;17.70;;;7.70;;
20449;SDS011;10384;51.940;8.432;2022-12-26T06:44:34;17.83;;;7.43;;
20449;SDS011;10384;51.940;8.432;2022-12-26T06:47:00;15.37;;;7.40;;
20449;SDS011;10384;51.940;8.432;2022-12-26T06:49:27;16.93;;;7.90;;
20449;SDS011;10384;51.940;8.432;2022-12-26T06:51:53;16.10;;;7.70;;
20449;SDS011;10384;51.940;8.432;2022-12-26T06:54:19;15.23;;;7.23;;
20449;SDS011;10384;51.940;8.432;2022-12-26T06:56:45;17.83;;;7.30;;
20449;SDS011;10384;51.940;8.432;2022-12-26T06:59:11;17.53;;;7.37;;
20449;SDS011;10384;51.940;8.432;2022-12-26T07:01:37;17.17;;;7.40;;
20449;SDS011;10384;51.940;8.432;2022-12-26T07:04:03;15.87;;;7.30;;
20449;SDS011;10384;51.940;8.432;2022-12-26T07:06:33;16.07;;;7.10;;
20449;SDS011;10384;51.940;8.432;2022-12-26T07:09:04;16.73;;;7.07;;
20449;SDS011;10384;51.940;8.432;2022-12-26T07:11:31;14.53;;;7.23;;
20449;SDS011;10384;51.940;8.432;2022-12-26T07:13:57;18.50;;;6.83;;
20449;SDS011;10384;51.940;8.432;2022-12-26T07:16:23;16.93;;;7.50;;
20449;SDS011;10384;51.940;8.432;2022-12-26T07:18:53;16.33;;;6.83;;
20449;SDS011;10384;51.940;8.432;2022-12-26T07:21:20;15.97;;;6.70;;
20449;SDS011;10384;51.940;8.432;2022-12-26T07:23:46;15.10;;;7.10;;
20449;SDS011;10384;51.940;8.432;2022-12-26T07:26:12;13.90;;;6.33;;
20449;SDS011;10384;51.940;8.432;2022-12-26T07:28:38;15.70;;;6.40;;
20449;SDS011;10384;51.940;8.432;2022-12-26T07:31:04;14.33;;;6.60;;
20449;SDS011;10384;51.940;8.432;2022-12-26T07:33:31;15.20;;;6.63;;
20449;SDS011;10384;51.940;8.432;2022-12-26T07:35:58;14.57;;;6.50;;
20449;SDS011;10384;51.940;8.432;2022-12-26T07:38:24;13.80;;;6.30;;
20449;SDS011;10384;51.940;8.432;2022-12-26T07:40:53;18.50;;;7.30;;
20449;SDS011;10384;51.940;8.432;2022-12-26T07:43:19;15.23;;;6.97;;
20449;SDS011;10384;51.940;8.432;2022-12-26T07:45:45;16.97;;;7.10;;
20449;SDS011;10384;51.940;8.432;2022-12-26T07:48:11;18.57;;;8.50;;
20449;SDS011;10384;51.940;8.432;2022-12-26T07:50:37;18.03;;;7.60;;
20449;SDS011;10384;51.940;8.432;2022-12-26T07:53:02;15.87;;;7.13;;
20449;SDS011;10384;51.940;8.432;2022-12-26T07:55:28;23.00;;;8.30;;
20449;SDS011;10384;51.940;8.432;2022-12-26T07:57:54;20.33;;;8.43;;
20449;SDS011;10384;51.940;8.432;2022-12-26T08:00:20;19.17;;;8.03;;
20449;SDS011;10384;51.940;8.432;2022-12-26T08:02:47;22.47;;;8.67;;
20449;SDS011;10384;51.940;8.432;2022-12-26T08:05:13;20.87;;;8.50;;
20449;SDS011;10384;51.940;8.432;2022-12-26T08:07:39;22.53;;;8.80;;
20449;SDS011;10384;51.940;8.432;2022-12-26T08:10:05;21.43;;;8.70;;
20449;SDS011;10384;51.940;8.432;2022-12-26T08:12:32;18.73;;;7.97;;
20449;SDS011;10384;51.940;8.432;2022-12-26T08:14:58;21.57;;;8.17;;
20449;SDS011;10384;51.940;8.432;2022-12-26T08:17:24;21.40;;;8.30;;
20449;SDS011;10384;51.940;8.432;2022-12-26T08:19:50;19.73;;;8.47;;
20449;SDS011;10384;51.940;8.432;2022-12-26T08:22:16;21.37;;;8.67;;
20449;SDS011;10384;51.940;8.432;2022-12-26T08:24:42;21.97;;;8.17;;
20449;SDS011;10384;51.940;8.432;2022-12-26T08:27:09;24.13;;;8.43;;
20449;SDS011;10384;51.940;8.432;2022-12-26T08:29:35;19.53;;;8.17;;
20449;SDS011;10384;51.940;8.432;2022-12-26T08:32:01;15.77;;;7.63;;
20449;SDS011;10384;51.940;8.432;2022-12-26T08:34:30;20.23;;;7.90;;
20449;SDS011;10384;51.940;8.432;2022-12-26T08:36:57;18.67;;;8.13;;
20449;SDS011;10384;51.940;8.432;2022-12-26T08:39:23;19.10;;;7.67;;
20449;SDS011;10384;51.940;8.432;2022-12-26T08:41:49;14.13;;;6.90;;
20449;SDS011;10384;51.940;8.432;2022-12-26T08:44:15;17.10;;;7.50;;
20449;SDS011;10384;51.940;8.432;2022-12-26T08:46:41;21.53;;;7.67;;
20449;SDS011;10384;51.940;8.432;2022-12-26T08:49:07;16.67;;;7.10;;
20449;SDS011;10384;51.940;8.432;2022-12-26T08:51:33;17.27;;;6.60;;
20449;SDS011;10384;51.940;8.432;2022-12-26T08:54:00;14.73;;;5.90;;
20449;SDS011;10384;51.940;8.432;2022-12-26T08:56:26;15.33;;;6.40;;
20449;SDS011;10384;51.940;8.432;2022-12-26T08:58:53;15.30;;;5.80;;
20449;SDS011;10384;51.940;8.432;2022-12-26T09:01:23;12.73;;;5.90;;
20449;SDS011;10384;51.940;8.432;2022-12-26T09:03:52;12.80;;;5.60;;
20449;SDS011;10384;51.940;8.432;2022-12-26T09:06:18;11.80;;;5.70;;
20449;SDS011;10384;51.940;8.432;2022-12-26T09:08:44;11.73;;;5.40;;
20449;SDS011;10384;51.940;8.432;2022-12-26T09:11:12;11.20;;;5.20;;
20449;SDS011;10384;51.940;8.432;2022-12-26T09:13:39;11.60;;;5.27;;
20449;SDS011;10384;51.940;8.432;2022-12-26T09:18:31;9.60;;;4.60;;
20449;SDS011;10384;51.940;8.432;2022-12-26T09:21:00;8.70;;;4.03;;
20449;SDS011;10384;51.940;8.432;2022-12-26T09:23:26;7.57;;;3.83;;
20449;SDS011;10384;51.940;8.432;2022-12-26T09:25:53;8.00;;;4.10;;
20449;SDS011;10384;51.940;8.432;2022-12-26T09:28:19;7.53;;;3.87;;
20449;SDS011;10384;51.940;8.432;2022-12-26T09:30:45;8.10;;;3.97;;
20449;SDS011;10384;51.940;8.432;2022-12-26T09:33:11;10.37;;;4.20;;
20449;SDS011;10384;51.940;8.432;2022-12-26T09:35:40;8.60;;;3.73;;
20449;SDS011;10384;51.940;8.432;2022-12-26T09:38:06;8.90;;;3.80;;
20449;SDS011;10384;51.940;8.432;2022-12-26T09:40:35;9.53;;;4.40;;
20449;SDS011;10384;51.940;8.432;2022-12-26T09:45:36;7.90;;;3.83;;
20449;SDS011;10384;51.940;8.432;2022-12-26T09:48:26;7.60;;;3.83;;
20449;SDS011;10384;51.940;8.432;2022-12-26T09:50:55;7.87;;;3.67;;
20449;SDS011;10384;51.940;8.432;2022-12-26T09:56:03;6.50;;;3.67;;
20449;SDS011;10384;51.940;8.432;2022-12-26T09:58:47;7.07;;;3.77;;
20449;SDS011;10384;51.940;8.432;2022-12-26T10:03:48;8.57;;;3.77;;
20449;SDS011;10384;51.940;8.432;2022-12-26T10:11:09;6.43;;;3.60;;
20449;SDS011;10384;51.940;8.432;2022-12-26T10:13:48;6.17;;;3.00;;
20449;SDS011;10384;51.940;8.432;2022-12-26T10:17:01;5.57;;;3.13;;
20449;SDS011;10384;51.940;8.432;2022-12-26T10:19:02;5.20;;;2.90;;
20449;SDS011;10384;51.940;8.432;2022-12-26T10:21:34;5.10;;;3.07;;
20449;SDS011;10384;51.940;8.432;2022-12-26T10:24:23;6.73;;;2.70;;
20449;SDS011;10384;51.940;8.432;2022-12-26T10:26:48;4.80;;;2.67;;
20449;SDS011;10384;51.940;8.432;2022-12-26T10:29:18;9.93;;;3.00;;
20449;SDS011;10384;51.940;8.432;2022-12-26T10:31:51;6.33;;;2.60;;
20449;SDS011;10384;51.940;8.432;2022-12-26T10:34:20;6.50;;;2.70;;
20449;SDS011;10384;51.940;8.432;2022-12-26T10:36:53;8.40;;;2.70;;
20449;SDS011;10384;51.940;8.432;2022-12-26T10:39:21;6.53;;;2.60;;
20449;SDS011;10384;51.940;8.432;2022-12-26T10:41:59;3.60;;;2.30;;
20449;SDS011;10384;51.940;8.432;2022-12-26T10:44:26;4.63;;;2.40;;
20449;SDS011;10384;51.940;8.432;2022-12-26T10:47:11;7.23;;;2.40;;
20449;SDS011;10384;51.940;8.432;2022-12-26T10:49:41;3.37;;;2.57;;
20449;SDS011;10384;51.940;8.432;2022-12-26T10:52:08;4.17;;;2.50;;
20449;SDS011;10384;51.940;8.432;2022-12-26T10:54:35;5.07;;;2.50;;
20449;SDS011;10384;51.940;8.432;2022-12-26T10:57:01;4.23;;;2.53;;
20449;SDS011;10384;51.940;8.432;2022-12-26T10:59:49;3.43;;;2.10;;
20449;SDS011;10384;51.940;8.432;2022-12-26T11:02:19;4.10;;;2.50;;
20449;SDS011;10384;51.940;8.432;2022-12-26T11:04:57;4.33;;;2.60;;
20449;SDS011;10384;51.940;8.432;2022-12-26T11:07:24;6.07;;;2.30;;
20449;SDS011;10384;51.940;8.432;2022-12-26T11:09:51;3.57;;;2.30;;
20449;SDS011;10384;51.940;8.432;2022-12-26T11:12:35;3.93;;;2.33;;
20449;SDS011;10384;51.940;8.432;2022-12-26T11:15:16;4.40;;;2.50;;
20449;SDS011;10384;51.940;8.432;2022-12-26T11:17:43;4.13;;;2.33;;
20449;SDS011;10384;51.940;8.432;2022-12-26T11:20:11;6.83;;;2.10;;
20449;SDS011;10384;51.940;8.432;2022-12-26T11:22:44;2.83;;;2.00;;
20449;SDS011;10384;51.940;8.432;2022-12-26T11:27:40;3.20;;;2.10;;
20449;SDS011;10384;51.940;8.432;2022-12-26T11:32:42;4.30;;;2.57;;
20449;SDS011;10384;51.940;8.432;2022-12-26T11:35:16;4.73;;;2.20;;
20449;SDS011;10384;51.940;8.432;2022-12-26T11:37:43;4.00;;;2.20;;
20449;SDS011;10384;51.940;8.432;2022-12-26T11:40:46;6.67;;;2.10;;
20449;SDS011;10384;51.940;8.432;2022-12-26T11:43:03;3.00;;;2.30;;
20449;SDS011;10384;51.940;8.432;2022-12-26T11:45:30;3.40;;;2.23;;
20449;SDS011;10384;51.940;8.432;2022-12-26T11:48:00;4.17;;;2.10;;
20449;SDS011;10384;51.940;8.432;2022-12-26T11:50:28;4.47;;;2.23;;
20449;SDS011;10384;51.940;8.432;2022-12-26T11:55:28;4.63;;;2.30;;
20449;SDS011;10384;51.940;8.432;2022-12-26T12:00:20;2.03;;;1.80;;
20449;SDS011;10384;51.940;8.432;2022-12-26T12:02:46;4.23;;;1.90;;
20449;SDS011;10384;51.940;8.432;2022-12-26T12:05:14;3.93;;;2.00;;
20449;SDS011;10384;51.940;8.432;2022-12-26T12:10:17;5.50;;;2.60;;
20449;SDS011;10384;51.940;8.432;2022-12-26T12:12:50;3.43;;;1.93;;
20449;SDS011;10384;51.940;8.432;2022-12-26T12:15:24;4.37;;;2.37;;
20449;SDS011;10384;51.940;8.432;2022-12-26T12:18:13;5.97;;;2.77;;
20449;SDS011;10384;51.940;8.432;2022-12-26T12:23:34;5.73;;;2.63;;
20449;SDS011;10384;51.940;8.432;2022-12-26T12:26:08;4.90;;;2.73;;
20449;SDS011;10384;51.940;8.432;2022-12-26T12:34:01;6.03;;;2.93;;
20449;SDS011;10384;51.940;8.432;2022-12-26T12:39:03;5.90;;;2.50;;
20449;SDS011;10384;51.940;8.432;2022-12-26T12:44:09;7.90;;;2.60;;
20449;SDS011;10384;51.940;8.432;2022-12-26T12:54:28;4.83;;;2.30;;
20449;SDS011;10384;51.940;8.432;2022-12-26T12:59:35;2.93;;;2.10;;
20449;SDS011;10384;51.940;8.432;2022-12-26T13:02:08;7.30;;;2.30;;
20449;SDS011;10384;51.940;8.432;2022-12-26T13:04:40;4.00;;;2.07;;
20449;SDS011;10384;51.940;8.432;2022-12-26T13:07:10;5.10;;;2.30;;
20449;SDS011;10384;51.940;8.432;2022-12-26T13:10:21;4.03;;;2.10;;
20449;SDS011;10384;51.940;8.432;2022-12-26T13:12:29;4.40;;;2.33;;
20449;SDS011;10384;51.940;8.432;2022-12-26T13:15:04;3.43;;;2.50;;
20449;SDS011;10384;51.940;8.432;2022-12-26T13:17:36;3.70;;;2.30;;
20449;SDS011;10384;51.940;8.432;2022-12-26T13:20:13;4.73;;;2.43;;
20449;SDS011;10384;51.940;8.432;2022-12-26T13:22:41;4.33;;;2.13;;
20449;SDS011;10384;51.940;8.432;2022-12-26T13:25:30;5.87;;;2.50;;
20449;SDS011;10384;51.940;8.432;2022-12-26T13:27:57;4.93;;;2.03;;
20449;SDS011;10384;51.940;8.432;2022-12-26T13:30:33;3.93;;;2.17;;
20449;SDS011;10384;51.940;8.432;2022-12-26T13:32:59;6.40;;;2.13;;
20449;SDS011;10384;51.940;8.432;2022-12-26T13:38:10;6.00;;;1.83;;
20449;SDS011;10384;51.940;8.432;2022-12-26T13:40:36;2.43;;;1.70;;
20449;SDS011;10384;51.940;8.432;2022-12-26T13:43:08;3.87;;;1.37;;
20449;SDS011;10384;51.940;8.432;2022-12-26T13:45:57;6.03;;;1.37;;
20449;SDS011;10384;51.940;8.432;2022-12-26T13:53:38;5.03;;;1.70;;
20449;SDS011;10384;51.940;8.432;2022-12-26T13:58:59;5.17;;;1.87;;
20449;SDS011;10384;51.940;8.432;2022-12-26T14:01:41;6.80;;;1.43;;
20449;SDS011;10384;51.940;8.432;2022-12-26T14:12:24;6.57;;;0.93;;
20449;SDS011;10384;51.940;8.432;2022-12-26T14:14:57;2.37;;;1.00;;
20449;SDS011;10384;51.940;8.432;2022-12-26T14:22:38;6.13;;;0.93;;
20449;SDS011;10384;51.940;8.432;2022-12-26T14:25:11;4.67;;;0.93;;
20449;SDS011;10384;51.940;8.432;2022-12-26T14:27:43;4.87;;;0.83;;
20449;SDS011;10384;51.940;8.432;2022-12-26T14:40:19;2.27;;;0.80;;
20449;SDS011;10384;51.940;8.432;2022-12-26T14:43:08;2.70;;;0.60;;
20449;SDS011;10384;51.940;8.432;2022-12-26T14:50:41;5.27;;;0.83;;
20449;SDS011;10384;51.940;8.432;2022-12-26T14:55:59;3.33;;;0.90;;
20449;SDS011;10384;51.940;8.432;2022-12-26T15:03:39;2.00;;;0.60;;
20449;SDS011;10384;51.940;8.432;2022-12-26T15:06:31;4.50;;;1.00;;
20449;SDS011;10384;51.940;8.432;2022-12-26T15:16:53;6.47;;;1.10;;
20449;SDS011;10384;51.940;8.432;2022-12-26T15:19:30;4.10;;;1.00;;
20449;SDS011;10384;51.940;8.432;2022-12-26T15:22:22;2.77;;;0.87;;
20449;SDS011;10384;51.940;8.432;2022-12-26T15:27:32;3.97;;;1.00;;
20449;SDS011;10384;51.940;8.432;2022-12-26T15:30:08;5.00;;;1.17;;
20449;SDS011;10384;51.940;8.432;2022-12-26T15:35:16;1.77;;;0.80;;
20449;SDS011;10384;51.940;8.432;2022-12-26T15:37:53;6.17;;;1.00;;
20449;SDS011;10384;51.940;8.432;2022-12-26T15:40:21;3.73;;;0.90;;
20449;SDS011;10384;51.940;8.432;2022-12-26T15:45:23;4.63;;;0.80;;
20449;SDS011;10384;51.940;8.432;2022-12-26T15:50:36;4.27;;;1.03;;
20449;SDS011;10384;51.940;8.432;2022-12-26T15:53:12;1.83;;;1.00;;
20449;SDS011;10384;51.940;8.432;2022-12-26T16:00:52;1.77;;;0.90;;
20449;SDS011;10384;51.940;8.432;2022-12-26T16:05:46;2.70;;;1.10;;
20449;SDS011;10384;51.940;8.432;2022-12-26T16:08:33;5.43;;;1.20;;
20449;SDS011;10384;51.940;8.432;2022-12-26T16:11:12;1.83;;;1.00;;
20449;SDS011;10384;51.940;8.432;2022-12-26T16:13:49;6.20;;;0.90;;
20449;SDS011;10384;51.940;8.432;2022-12-26T16:16:25;7.87;;;1.23;;
20449;SDS011;10384;51.940;8.432;2022-12-26T16:18:52;5.10;;;1.30;;
20449;SDS011;10384;51.940;8.432;2022-12-26T16:21:18;3.70;;;1.53;;
20449;SDS011;10384;51.940;8.432;2022-12-26T16:24:06;4.53;;;0.80;;
20449;SDS011;10384;51.940;8.432;2022-12-26T16:26:33;3.07;;;1.00;;
20449;SDS011;10384;51.940;8.432;2022-12-26T16:29:02;4.67;;;1.10;;
20449;SDS011;10384;51.940;8.432;2022-12-26T16:31:29;5.17;;;1.33;;
20449;SDS011;10384;51.940;8.432;2022-12-26T16:33:56;4.23;;;1.13;;
20449;SDS011;10384;51.940;8.432;2022-12-26T16:36:24;3.80;;;1.03;;
20449;SDS011;10384;51.940;8.432;2022-12-26T16:38:50;3.63;;;0.97;;
20449;SDS011;10384;51.940;8.432;2022-12-26T16:41:18;5.53;;;0.97;;
20449;SDS011;10384;51.940;8.432;2022-12-26T16:43:45;6.63;;;1.17;;
20449;SDS011;10384;51.940;8.432;2022-12-26T16:46:11;1.90;;;0.90;;
20449;SDS011;10384;51.940;8.432;2022-12-26T16:48:38;3.77;;;0.90;;
20449;SDS011;10384;51.940;8.432;2022-12-26T16:51:06;4.60;;;1.00;;
20449;SDS011;10384;51.940;8.432;2022-12-26T16:58:45;6.67;;;1.33;;
20449;SDS011;10384;51.940;8.432;2022-12-26T17:01:14;5.07;;;1.37;;
20449;SDS011;10384;51.940;8.432;2022-12-26T17:03:48;3.30;;;1.10;;
20449;SDS011;10384;51.940;8.432;2022-12-26T17:06:21;7.00;;;1.33;;
20449;SDS011;10384;51.940;8.432;2022-12-26T17:08:48;5.07;;;1.23;;
20449;SDS011;10384;51.940;8.432;2022-12-26T17:11:15;2.67;;;1.23;;
20449;SDS011;10384;51.940;8.432;2022-12-26T17:13:45;2.77;;;1.40;;
20449;SDS011;10384;51.940;8.432;2022-12-26T17:16:14;4.83;;;1.80;;
20449;SDS011;10384;51.940;8.432;2022-12-26T17:21:22;2.87;;;1.80;;
20449;SDS011;10384;51.940;8.432;2022-12-26T17:29:36;4.77;;;1.63;;
20449;SDS011;10384;51.940;8.432;2022-12-26T17:32:06;4.17;;;1.73;;
20449;SDS011;10384;51.940;8.432;2022-12-26T17:34:33;5.57;;;1.60;;
20449;SDS011;10384;51.940;8.432;2022-12-26T17:37:02;3.17;;;1.20;;
20449;SDS011;10384;51.940;8.432;2022-12-26T17:39:28;4.73;;;1.17;;
20449;SDS011;10384;51.940;8.432;2022-12-26T17:41:56;4.97;;;1.40;;
20449;SDS011;10384;51.940;8.432;2022-12-26T17:44:32;3.73;;;1.10;;
20449;SDS011;10384;51.940;8.432;2022-12-26T17:47:10;6.20;;;1.33;;
20449;SDS011;10384;51.940;8.432;2022-12-26T17:49:37;4.83;;;1.50;;
20449;SDS011;10384;51.940;8.432;2022-12-26T17:52:03;6.57;;;1.30;;
20449;SDS011;10384;51.940;8.432;2022-12-26T17:54:29;3.10;;;0.90;;
20449;SDS011;10384;51.940;8.432;2022-12-26T17:56:55;3.17;;;1.03;;